Tuesday, January 16, 2018, 12:27 PM EST
Back to Local

KGFL, Floyd Bennett Memorial Airport

Location: Queensbury, NY, United States Lat: 43.333
Local Time: 12:27 PM EST (17:27 GMT) Lon: -73.617
Time Zone: US/Eastern Elev: 328 ft

Show me the last for .
Show Decoded

2018-01-16 12:19 METAR KGFL 161719Z AUTO 19004KT 3SM BR OVC035 M06/M08 A3042 RMK AO2 T10611078 =
2018-01-16 12:02 METAR KGFL 161702Z AUTO 19006KT 2 1/2SM BR BKN039 OVC049 M06/M08 A3043 RMK AO2
                 T10611083 =
2018-01-16 11:53 METAR KGFL 161653Z AUTO 18005KT 3SM BR BKN039 OVC049 M06/M08 A3044 RMK AO2 SNE28
                 SLP320 P0000 T10611083 =
2018-01-16 11:48 METAR KGFL 161648Z AUTO 19006KT 3SM BR BKN039 OVC047 M06/M08 A3044 RMK AO2 SNE28
                 P0000 =
2018-01-16 11:29 METAR KGFL 161629Z AUTO 19007KT 2SM BR BKN039 OVC047 M07/M08 A3045 RMK AO2 SNE28
                 P0000 T10671083 =
2018-01-16 11:12 METAR KGFL 161612Z AUTO 19006KT 1 3/4SM -SN BR BKN037 OVC045 M07/M08 A3046 RMK
                 AO2 P0000 T10671083 =
2018-01-16 11:01 METAR KGFL 161601Z AUTO 19007KT 1/2SM -SN FZFG BKN037 OVC045 M07/M09 A3046 RMK
                 AO2 P0000 T10671089 =
2018-01-16 10:53 METAR KGFL 161553Z AUTO 20005KT 2 1/2SM -SN BR BKN037 OVC045 M07/M08 A3046 RMK
                 AO2 SNE48B49 SLP329 P0000 T10671083 =
2018-01-16 10:48 METAR KGFL 161548Z AUTO VRB05KT 2 1/2SM BR BKN039 OVC045 M07/M09 A3047 RMK AO2
                 SNE48 P0000 =
2018-01-16 10:02 METAR KGFL 161502Z AUTO 00000KT 1 3/4SM -SN BR BKN044 OVC050 M09/M10 A3047 RMK
                 AO2 P0000 T10891100 =
2018-01-16 09:53 METAR KGFL 161453Z AUTO 00000KT 3/4SM -SN BR BKN044 OVC050 M09/M11 A3047 RMK AO2
                 SLP333 P0000 60000 T10941106 51004 =
2018-01-16 09:10 METAR KGFL 161410Z AUTO 00000KT 1 3/4SM -SN BR OVC044 M09/M11 A3048 RMK AO2
                 P0000 T10941111 =
2018-01-16 08:53 METAR KGFL 161353Z AUTO 00000KT 2 1/2SM -SN BR SCT016 BKN045 OVC055 M10/M12
                 A3047 RMK AO2 SNB35 SLP331 P0000 T11001117 =
2018-01-16 08:45 METAR KGFL 161345Z AUTO 00000KT 2SM -SN BR BKN016 BKN034 OVC055 M10/M12 A3047
                 RMK AO2 SNB35 P0000 T11001117 =
2018-01-16 07:53 METAR KGFL 161253Z AUTO 00000KT 5SM BR OVC017 M10/M12 A3048 RMK AO2 SLP334
                 T11001122 =
2018-01-16 06:53 METAR KGFL 161153Z AUTO 00000KT 9SM BKN019 OVC030 M11/M12 A3046 RMK AO2 SLP328
                 60000 T11061122 11106 21117 55000 =
2018-01-16 05:53 METAR KGFL 161053Z AUTO 00000KT 5SM BR OVC034 M11/M12 A3046 RMK AO2 SNE45 SLP328
                 P0000 T11111122 =
2018-01-16 05:38 METAR KGFL 161038Z AUTO 00000KT 3SM -SN BR OVC036 M11/M13 A3046 RMK AO2 P0000
                 T11111128 =
2018-01-16 04:53 METAR KGFL 160953Z AUTO 00000KT 2SM -SN BR OVC036 M11/M13 A3046 RMK AO2 SLP328
                 P0000 T11111133 =
2018-01-16 04:45 METAR KGFL 160945Z AUTO 00000KT 2 1/2SM -SN BR FEW028 OVC036 M11/M13 A3046 RMK
                 AO2 P0000 T11111133 =
2018-01-16 04:32 METAR KGFL 160932Z AUTO 00000KT 3SM -SN BR FEW026 SCT030 OVC041 M11/M13 A3046
                 RMK AO2 P0000 T11111128 =
2018-01-16 04:17 METAR KGFL 160917Z AUTO 00000KT 2 1/2SM -SN BR SCT024 OVC040 M11/M13 A3046 RMK
                 AO2 P0000 T11111128 =
2018-01-16 04:03 METAR KGFL 160903Z AUTO 08003KT 3SM -SN BR OVC042 M12/M13 A3046 RMK AO2 P0000
                 T11171133 =
2018-01-16 03:53 METAR KGFL 160853Z AUTO 08003KT 2 1/2SM -SN BR OVC042 M12/M13 A3046 RMK AO2
                 SLP329 P0000 60000 T11171133 58008 =
2018-01-16 02:53 METAR KGFL 160753Z AUTO 16003KT 2 1/2SM -SN BR OVC036 M12/M13 A3048 RMK AO2
                 SLP334 P0000 T11171133 =
2018-01-16 02:26 METAR KGFL 160726Z AUTO 00000KT 2 1/2SM -SN BR OVC036 M12/M14 A3048 RMK AO2
                 P0000 T11171139 =
2018-01-16 01:53 METAR KGFL 160653Z AUTO 00000KT 4SM -SN BR OVC048 M12/M14 A3048 RMK AO2
                 SNB16E35B48 SLP334 P0000 T11171139 =
2018-01-16 01:35 METAR KGFL 160635Z AUTO 00000KT 4SM HZ SCT028 OVC050 M12/M14 A3048 RMK AO2
                 SNB16E35 P0000 T11171144 =
2018-01-16 00:53 METAR KGFL 160553Z AUTO 06003KT 10SM OVC029 M12/M14 A3049 RMK AO2 SLP338
                 T11171144 11100 21122 57017 =
2018-01-16 00:20 METAR KGFL 160520Z AUTO 11003KT 10SM BKN029 OVC045 M12/M14 A3050 RMK AO2
                 T11171144 =
2018-01-15 23:53 METAR KGFL 160453Z AUTO 08003KT 10SM SCT030 OVC044 M12/M15 A3051 RMK AO2 SLP345
                 T11171150 410831172 =
2018-01-15 22:53 METAR KGFL 160353Z AUTO 07006KT 10SM OVC044 M12/M16 A3051 RMK AO2 SLP348
                 T11171156 =
2018-01-15 21:53 METAR KGFL 160253Z AUTO 04004KT 10SM OVC046 M12/M16 A3054 RMK AO2 SLP356
                 T11171161 56015 =
2018-01-15 20:53 METAR KGFL 160153Z AUTO 08003KT 10SM FEW110 M12/M15 A3055 RMK AO2 SLP363
                 T11171150 =
2018-01-15 19:53 METAR KGFL 160053Z AUTO 05004KT 10SM BKN037 M11/M14 A3056 RMK AO2 SLP364
                 T11061139 =
2018-01-15 18:53 METAR KGFL 152353Z AUTO 04005KT 10SM FEW037 M10/M14 A3058 RMK AO2 SLP371
                 T11001144 11083 21106 58006 =
2018-01-15 17:53 METAR KGFL 152253Z AUTO 04003KT 10SM CLR M09/M14 A3060 RMK AO2 SLP378 T10941144
                 =
2018-01-15 16:53 METAR KGFL 152153Z AUTO 00000KT 10SM CLR M09/M16 A3060 RMK AO2 SLP378 T10941156
                 =
2018-01-15 15:53 METAR KGFL 152053Z AUTO 07003KT 10SM CLR M08/M16 A3060 RMK AO2 SLP377 T10831161
                 56024 =
2018-01-15 14:53 METAR KGFL 151953Z AUTO 00000KT 10SM CLR M09/M16 A3062 RMK AO2 SLP384 T10891161
                 =
2018-01-15 13:53 METAR KGFL 151853Z AUTO 09004KT 10SM CLR M10/M17 A3063 RMK AO2 SLP390 T11001167
                 =
2018-01-15 12:53 METAR KGFL 151753Z AUTO 00000KT 10SM CLR M11/M16 A3067 RMK AO2 SLP402 T11061156
                 11106 21161 56038 =

Support USWX by starting your Amazon purchase here.